Capitol Logistics 413




MYNN
Lynden Pindling International Airport
Nassau, BS
MBPV
Providenciales International Airport
Providenciales, TC

Activity Log

Date Flight Route Aircraft Duration
04/13/2021 CPX3275 ZQA A555 MICAS G648 PVN SF34 1h 39m
03/16/2021 CPX3275 FREDY2 EXIGE DUKKY A555 BTLER MAXIN SF34 1h 43m
04/12/2020 CPX3275 ZQA A555 MICAS G648 PVN SF34 1h 50m
10/12/2019 CPX675 ZQA A555 MICAS G648 PVN SF34 2h 27m
09/04/2019 CPX675 CUDLI HIDGY DUNNO ACMEE WRECK SOLEI TROTR BENOS EMUSO SF34 1h 54m
08/21/2019 CPX675 ZQA A555 MICAS G648 PVN SF34 1h 35m

Route Details

Aircraft Information
Group: Narrowbodies
Types: B738,B752
Route Data
Demand: V
Distance: 348nm
Duration: 1h 39m
Recm'd Route: ZQA A555 MICAS G648 PVN
Origin Wx: MYNN 272200Z 16010KT 9999 SCT016CB SCT022 28/21 A3000
Dest. Wx: MBPV 272200Z 11007KT 9999 VCSH SCT012 28/21 Q1014
Notes:

Financial History
Total Freight: 37,910lbs
Average Load: 6,318lbs/flt
Fuel Used: 9,215lbs
Avg. Fuel Used: 1,536lbs/flt
Fuel Expense: $8,939
Avg. Fuel Expense: $1,490
Avg. Fuel Cost: $0.97/lbs
Total Gross Income: $46,204
Pilot Pay: $1,434
Total Expenses: $6,283
Total Revenue: $28,279
Average Revenue: $7,700.72